createdAt,value
2019-02-14T00:02:14.466Z,1.55
2019-02-14T00:04:42.704Z,1.51
2019-02-14T00:07:11.158Z,1.49
2019-02-14T00:09:39.618Z,1.44
2019-02-14T00:12:07.849Z,1.45
2019-02-14T00:14:36.310Z,1.47
2019-02-14T00:17:04.761Z,1.46
2019-02-14T00:19:33.239Z,1.47
2019-02-14T00:22:01.462Z,1.49
2019-02-14T00:24:29.932Z,1.49
2019-02-14T00:26:58.165Z,1.50
2019-02-14T00:29:26.386Z,1.52
2019-02-14T00:31:54.623Z,1.54
2019-02-14T00:34:22.983Z,1.57
2019-02-14T00:36:51.220Z,1.59
2019-02-14T00:39:19.443Z,1.62
2019-02-14T00:41:47.903Z,1.66
2019-02-14T00:44:16.139Z,1.68
2019-02-14T00:46:44.597Z,1.69
2019-02-14T00:49:12.819Z,1.70
2019-02-14T00:51:41.061Z,1.61
2019-02-14T00:54:09.287Z,1.59
2019-02-14T00:56:37.533Z,1.52
2019-02-14T00:59:05.766Z,1.52
2019-02-14T01:01:34.006Z,1.53
2019-02-14T01:04:02.237Z,1.56
2019-02-14T01:06:30.474Z,1.58
2019-02-14T01:08:58.700Z,1.53
2019-02-14T01:11:27.002Z,1.52
2019-02-14T01:13:55.241Z,1.50
2019-02-14T01:16:23.479Z,1.48
2019-02-14T01:18:51.706Z,1.43
2019-02-14T01:21:20.018Z,1.49
2019-02-14T01:23:48.243Z,1.51
2019-02-14T01:26:16.753Z,1.52
2019-02-14T01:28:44.982Z,1.56
2019-02-14T01:31:13.507Z,1.59
2019-02-14T01:33:41.739Z,1.57
2019-02-14T01:36:09.964Z,1.62
2019-02-14T01:38:38.204Z,1.63
2019-02-14T01:41:06.659Z,1.60
2019-02-14T01:43:34.900Z,1.55
2019-02-14T01:46:03.127Z,1.53
2019-02-14T01:48:31.589Z,1.48
2019-02-14T01:51:00.038Z,1.49
2019-02-14T01:53:28.269Z,1.46
2019-02-14T01:55:56.496Z,1.46
2019-02-14T01:58:24.739Z,1.43
2019-02-14T02:00:52.976Z,1.39
2019-02-14T02:03:21.233Z,1.36
2019-02-14T02:05:50.975Z,1.34
2019-02-14T02:08:19.284Z,1.35
2019-02-14T02:10:47.749Z,1.33
2019-02-14T02:13:16.216Z,1.34
2019-02-14T02:15:44.450Z,1.32
2019-02-14T02:18:12.695Z,1.24
2019-02-14T02:20:40.931Z,1.22
2019-02-14T02:23:09.172Z,1.23
2019-02-14T02:25:37.405Z,1.23
2019-02-14T02:28:05.650Z,1.20
2019-02-14T02:30:34.112Z,1.22
2019-02-14T02:33:02.348Z,1.23
2019-02-14T02:35:30.588Z,1.22
2019-02-14T02:37:58.820Z,1.26
2019-02-14T02:40:27.067Z,1.21
2019-02-14T02:42:55.305Z,1.17
2019-02-14T02:45:23.549Z,1.21
2019-02-14T02:50:21.736Z,1.19
2019-02-14T02:52:49.966Z,1.13
2019-02-14T02:55:18.448Z,1.14
2019-02-14T02:57:46.679Z,1.12
2019-02-14T03:00:16.657Z,1.11
2019-02-14T03:02:44.961Z,1.06
2019-02-14T03:05:15.282Z,1.08
2019-02-14T03:07:43.512Z,1.11
2019-02-14T03:10:13.296Z,1.10
2019-02-14T03:12:41.757Z,1.05
2019-02-14T03:15:12.900Z,0.98
2019-02-14T03:17:41.136Z,0.97
2019-02-14T03:20:11.218Z,0.96
2019-02-14T03:22:39.455Z,0.97
2019-02-14T03:25:16.687Z,0.99
2019-02-14T03:27:44.903Z,1.05
2019-02-14T03:30:15.098Z,1.09
2019-02-14T03:32:43.547Z,1.05
2019-02-14T03:35:11.837Z,1.03
2019-02-14T03:37:40.065Z,0.99
2019-02-14T03:40:11.462Z,0.99
2019-02-14T03:42:39.928Z,0.93
2019-02-14T03:45:13.698Z,0.96
2019-02-14T03:47:41.937Z,0.98
2019-02-14T03:50:11.198Z,0.96
2019-02-14T03:52:39.435Z,0.95
2019-02-14T03:55:09.625Z,0.97
2019-02-14T03:57:38.726Z,1.03
2019-02-14T04:00:12.343Z,1.06
2019-02-14T04:02:40.576Z,1.05
2019-02-14T04:05:09.047Z,1.04
2019-02-14T04:07:37.287Z,1.03
2019-02-14T04:10:13.653Z,1.05
2019-02-14T04:12:42.118Z,1.06
2019-02-14T04:15:15.422Z,1.03
2019-02-14T04:17:43.653Z,1.05
2019-02-14T04:20:12.117Z,1.01
2019-02-14T04:22:40.354Z,1.00
2019-02-14T04:25:09.823Z,0.98
2019-02-14T04:27:38.291Z,0.96
2019-02-14T04:30:09.428Z,0.94
2019-02-14T04:32:37.898Z,0.96
2019-02-14T04:35:06.297Z,0.94
2019-02-14T04:37:34.545Z,0.93
2019-02-14T04:40:02.771Z,0.90
2019-02-14T04:42:31.005Z,0.86
2019-02-14T04:44:59.479Z,0.83
2019-02-14T04:47:27.707Z,0.85
2019-02-14T04:49:55.943Z,0.83
2019-02-14T04:52:24.171Z,0.80
2019-02-14T04:54:52.410Z,0.77
2019-02-14T04:57:20.638Z,0.77
2019-02-14T04:59:49.103Z,0.72
2019-02-14T05:02:17.329Z,0.67
2019-02-14T05:04:45.562Z,0.63
2019-02-14T05:07:14.016Z,0.62
2019-02-14T05:09:42.257Z,0.61
2019-02-14T05:12:10.714Z,0.58
2019-02-14T05:14:39.175Z,0.57
2019-02-14T05:17:07.403Z,0.55
2019-02-14T05:19:35.643Z,0.50
2019-02-14T05:22:04.108Z,0.52
2019-02-14T05:24:32.347Z,0.52
2019-02-14T05:27:00.575Z,0.51
2019-02-14T05:29:28.819Z,0.51
2019-02-14T05:31:57.276Z,0.50
2019-02-14T05:34:25.518Z,0.50
2019-02-14T05:36:55.307Z,0.53
2019-02-14T05:39:23.602Z,0.53
2019-02-14T05:41:51.829Z,0.46
2019-02-14T05:44:20.062Z,0.45
2019-02-14T05:46:48.300Z,0.41
2019-02-14T05:49:16.527Z,0.42
2019-02-14T05:51:44.768Z,0.42
2019-02-14T05:54:12.995Z,0.43
2019-02-14T05:56:41.238Z,0.42
2019-02-14T05:59:09.471Z,0.38
2019-02-14T06:01:37.723Z,0.36
2019-02-14T06:04:05.934Z,0.34
2019-02-14T06:06:34.170Z,0.33
2019-02-14T06:09:02.401Z,0.35
2019-02-14T06:11:30.980Z,0.34
2019-02-14T06:13:59.433Z,0.30
2019-02-14T06:16:27.893Z,0.28
2019-02-14T06:18:56.123Z,0.27
2019-02-14T06:21:24.592Z,0.29
2019-02-14T06:23:52.817Z,0.27
2019-02-14T06:26:21.060Z,0.25
2019-02-14T06:28:49.293Z,0.24
2019-02-14T06:31:17.527Z,0.24
2019-02-14T06:33:45.759Z,0.24
2019-02-14T06:36:14.260Z,0.19
2019-02-14T06:38:42.493Z,0.15
2019-02-14T06:41:10.725Z,0.17
2019-02-14T06:43:38.955Z,0.14
2019-02-14T06:46:07.203Z,0.10
2019-02-14T06:48:35.753Z,0.08
2019-02-14T06:51:03.979Z,0.09
2019-02-14T06:53:32.221Z,0.10
2019-02-14T06:56:00.452Z,0.16
2019-02-14T06:58:28.691Z,0.19
2019-02-14T07:00:57.247Z,0.22
2019-02-14T07:03:25.706Z,0.26
2019-02-14T07:05:54.197Z,0.28
2019-02-14T07:08:22.418Z,0.33
2019-02-14T07:10:50.874Z,0.38
2019-02-14T07:13:19.129Z,0.42
2019-02-14T07:15:47.369Z,0.36
2019-02-14T07:18:15.619Z,0.53
2019-02-14T07:20:43.857Z,0.55
2019-02-14T07:23:12.117Z,0.57
2019-02-14T07:25:40.356Z,0.59
2019-02-14T07:28:08.828Z,0.65
2019-02-14T07:30:37.300Z,0.65
2019-02-14T07:33:05.609Z,0.68
2019-02-14T07:35:34.169Z,0.69
2019-02-14T07:38:02.753Z,0.70
2019-02-14T07:40:30.996Z,0.71
2019-02-14T07:42:59.510Z,0.75
2019-02-14T07:45:27.739Z,0.80
2019-02-14T07:47:56.202Z,0.84
2019-02-14T07:50:24.456Z,0.84
2019-02-14T07:52:52.695Z,0.83
2019-02-14T07:55:20.947Z,0.91
2019-02-14T07:57:49.484Z,0.93
2019-02-14T08:00:19.395Z,0.95
2019-02-14T08:02:47.625Z,0.98
2019-02-14T08:05:15.870Z,1.05
2019-02-14T08:07:44.101Z,1.09
2019-02-14T08:10:16.314Z,1.11
2019-02-14T08:12:44.773Z,1.11
2019-02-14T08:15:16.192Z,1.12
2019-02-14T08:17:44.402Z,1.17
2019-02-14T08:20:15.186Z,1.19
2019-02-14T08:22:43.418Z,1.21
2019-02-14T08:25:13.108Z,1.24
2019-02-14T08:27:41.342Z,1.29
2019-02-14T08:30:15.068Z,1.35
2019-02-14T08:32:43.531Z,1.47
2019-02-14T08:35:11.779Z,1.56
2019-02-14T08:37:45.453Z,1.63
2019-02-14T08:40:19.359Z,1.73
2019-02-14T08:42:47.861Z,1.85
2019-02-14T08:45:16.341Z,1.97
2019-02-14T08:47:44.591Z,2.10
2019-02-14T08:50:12.896Z,2.23
2019-02-14T08:52:41.144Z,2.36
2019-02-14T08:55:10.287Z,2.46
2019-02-14T08:57:38.866Z,2.56
2019-02-14T09:00:15.204Z,2.65
2019-02-14T09:02:43.527Z,2.71
2019-02-14T09:05:12.085Z,2.85
2019-02-14T09:07:40.326Z,2.99
2019-02-14T09:10:14.295Z,3.09
2019-02-14T09:12:42.563Z,3.21
2019-02-14T09:15:12.542Z,3.33
2019-02-14T09:17:40.785Z,3.44
2019-02-14T09:20:12.117Z,3.52
2019-02-14T09:22:40.358Z,3.62
2019-02-14T09:25:08.595Z,3.74
2019-02-14T09:27:36.841Z,3.79
2019-02-14T09:30:08.201Z,3.85
2019-02-14T09:32:36.427Z,4.00
2019-02-14T09:35:06.498Z,4.35
2019-02-14T09:37:34.979Z,4.35
2019-02-14T09:40:03.678Z,4.77
2019-02-14T09:42:31.917Z,4.77
2019-02-14T09:45:00.316Z,4.87
2019-02-14T09:47:28.486Z,4.94
2019-02-14T09:49:56.749Z,5.15
2019-02-14T09:52:24.964Z,5.21
2019-02-14T09:54:53.209Z,5.37
2019-02-14T09:57:21.476Z,5.37
2019-02-14T09:59:49.693Z,5.53
2019-02-14T10:02:17.936Z,5.75
2019-02-14T10:04:46.179Z,5.83
2019-02-14T10:07:14.889Z,5.88
2019-02-14T10:09:43.170Z,5.96
2019-02-14T10:12:11.391Z,6.09
2019-02-14T10:14:39.921Z,6.18
2019-02-14T10:17:08.154Z,6.14
2019-02-14T10:19:36.688Z,6.18
2019-02-14T10:22:05.149Z,6.24
2019-02-14T10:24:33.627Z,6.33
2019-02-14T10:27:01.866Z,6.34
2019-02-14T10:29:30.107Z,6.41
2019-02-14T10:31:58.343Z,6.47
2019-02-14T10:34:26.806Z,6.56
2019-02-14T10:36:55.051Z,6.57
2019-02-14T10:39:23.276Z,6.64
2019-02-14T10:41:51.523Z,6.70
2019-02-14T10:44:19.986Z,6.78
2019-02-14T10:46:48.552Z,6.76
2019-02-14T10:49:16.781Z,6.60
2019-02-14T10:51:45.035Z,6.61
2019-02-14T10:54:13.268Z,6.73
2019-02-14T10:56:41.509Z,6.75
2019-02-14T10:59:09.746Z,6.69
2019-02-14T11:01:38.221Z,6.77
2019-02-14T11:04:06.456Z,6.75
2019-02-14T11:06:34.697Z,6.72
2019-02-14T11:09:03.250Z,6.77
2019-02-14T11:11:31.492Z,6.88
2019-02-14T11:13:59.723Z,7.05
2019-02-14T11:16:27.971Z,7.21
2019-02-14T11:18:56.239Z,7.26
2019-02-14T11:21:24.476Z,7.30
2019-02-14T11:23:52.720Z,7.25
2019-02-14T11:26:20.961Z,7.21
2019-02-14T11:28:49.470Z,7.19
2019-02-14T11:31:17.942Z,7.15
2019-02-14T11:33:46.412Z,7.21
2019-02-14T11:36:14.654Z,7.32
2019-02-14T11:38:42.899Z,7.44
2019-02-14T11:41:11.146Z,7.56
2019-02-14T11:43:39.615Z,7.70
2019-02-14T11:46:08.083Z,7.85
2019-02-14T11:48:36.322Z,7.96
2019-02-14T11:51:04.888Z,8.02
2019-02-14T11:53:33.153Z,8.22
2019-02-14T11:56:01.402Z,8.36
2019-02-14T11:58:29.632Z,8.51
2019-02-14T12:00:57.878Z,8.59
2019-02-14T12:03:26.115Z,8.72
2019-02-14T12:05:54.572Z,8.79
2019-02-14T12:08:22.828Z,8.84
2019-02-14T12:10:51.058Z,8.89
2019-02-14T12:13:19.335Z,8.92
2019-02-14T12:15:47.571Z,8.91
2019-02-14T12:18:15.813Z,8.97
2019-02-14T12:20:44.055Z,8.98
2019-02-14T12:23:12.293Z,8.91
2019-02-14T12:25:40.527Z,8.95
2019-02-14T12:28:08.759Z,9.00
2019-02-14T12:30:37.002Z,9.07
2019-02-14T12:33:05.235Z,9.06
2019-02-14T12:35:33.480Z,9.14
2019-02-14T12:38:02.063Z,9.22
2019-02-14T12:40:30.292Z,9.29
2019-02-14T12:42:58.811Z,9.38
2019-02-14T12:45:27.419Z,9.43
2019-02-14T12:47:55.978Z,9.41
2019-02-14T12:50:24.451Z,9.53
2019-02-14T12:52:52.697Z,9.55
2019-02-14T12:55:20.927Z,9.49
2019-02-14T12:57:49.167Z,9.53
2019-02-14T13:00:22.289Z,9.46
2019-02-14T13:02:50.534Z,9.32
2019-02-14T13:05:19.041Z,9.26
2019-02-14T13:07:47.287Z,9.22
2019-02-14T13:10:17.526Z,9.15
2019-02-14T13:12:45.770Z,9.10
2019-02-14T13:15:16.919Z,9.05
2019-02-14T13:17:45.452Z,9.05
2019-02-14T13:20:13.951Z,9.07
2019-02-14T13:22:42.182Z,9.06
2019-02-14T13:25:11.826Z,9.11
2019-02-14T13:27:40.286Z,9.16
2019-02-14T13:30:11.535Z,9.20
2019-02-14T13:32:39.768Z,9.25
2019-02-14T13:35:08.005Z,9.26
2019-02-14T13:37:36.479Z,9.25
2019-02-14T13:40:06.304Z,9.30
2019-02-14T13:42:34.513Z,9.31
2019-02-14T13:45:02.824Z,9.31
2019-02-14T13:47:31.052Z,9.33
2019-02-14T13:49:59.298Z,9.35
2019-02-14T13:52:27.526Z,9.39
2019-02-14T13:54:55.776Z,9.46
2019-02-14T13:57:24.010Z,9.55
2019-02-14T13:59:52.566Z,9.63
2019-02-14T14:02:21.009Z,9.72
2019-02-14T14:04:49.237Z,9.82
2019-02-14T14:07:17.464Z,9.88
2019-02-14T14:09:46.099Z,9.96
2019-02-14T14:12:14.616Z,10.01
2019-02-14T14:14:43.094Z,10.01
2019-02-14T14:17:11.332Z,10.04
2019-02-14T14:19:39.586Z,9.95
2019-02-14T14:22:07.827Z,10.06
2019-02-14T14:24:36.080Z,10.06
2019-02-14T14:27:04.589Z,10.09
2019-02-14T14:29:32.836Z,10.11
2019-02-14T14:32:01.940Z,10.14
2019-02-14T14:34:30.285Z,10.16
2019-02-14T14:36:58.527Z,10.16
2019-02-14T14:39:26.777Z,10.14
2019-02-14T14:41:55.006Z,10.19
2019-02-14T14:44:30.699Z,10.27
2019-02-14T14:46:58.934Z,10.33
2019-02-14T14:49:27.181Z,10.41
2019-02-14T14:51:55.427Z,10.47
2019-02-14T14:54:23.677Z,10.57
2019-02-14T14:56:52.212Z,10.67
2019-02-14T14:59:20.690Z,10.78
2019-02-14T15:01:49.152Z,10.86
2019-02-14T15:04:17.382Z,10.96
2019-02-14T15:06:45.633Z,11.04
2019-02-14T15:09:13.870Z,11.12
2019-02-14T15:11:42.121Z,11.19
2019-02-14T15:14:10.358Z,11.25
2019-02-14T15:16:38.940Z,11.30
2019-02-14T15:19:07.420Z,11.37
2019-02-14T15:21:35.675Z,11.40
2019-02-14T15:24:04.142Z,11.48
2019-02-14T15:26:32.401Z,11.47
2019-02-14T15:29:00.939Z,11.48
2019-02-14T15:31:29.408Z,11.50
2019-02-14T15:33:57.645Z,11.51
2019-02-14T15:36:28.183Z,11.49
2019-02-14T15:38:55.867Z,11.54
2019-02-14T15:41:24.324Z,11.49
2019-02-14T15:43:52.576Z,11.45
2019-02-14T15:46:21.035Z,11.45
2019-02-14T15:48:49.262Z,11.44
2019-02-14T15:51:19.558Z,11.35
2019-02-14T15:53:47.693Z,11.17
2019-02-14T15:56:15.931Z,10.91
2019-02-14T15:58:44.165Z,10.73
2019-02-14T16:01:14.448Z,10.53
2019-02-14T16:03:42.806Z,10.37
2019-02-14T16:06:11.313Z,10.20
2019-02-14T16:08:39.555Z,10.03
2019-02-14T16:11:09.715Z,9.91
2019-02-14T16:13:37.968Z,9.82
2019-02-14T16:16:06.231Z,9.72
2019-02-14T16:18:34.464Z,9.64
2019-02-14T16:21:03.696Z,9.56
2019-02-14T16:23:34.202Z,9.47
2019-02-14T16:26:02.578Z,9.37
2019-02-14T16:28:31.009Z,9.29
2019-02-14T16:30:59.243Z,9.18
2019-02-14T16:33:27.730Z,9.06
2019-02-14T16:35:55.961Z,8.95
2019-02-14T16:38:24.208Z,8.83
2019-02-14T16:40:52.443Z,8.70
2019-02-14T16:43:20.804Z,8.60
2019-02-14T16:45:49.028Z,8.50
2019-02-14T16:48:17.287Z,8.42
2019-02-14T16:50:45.517Z,8.38
2019-02-14T16:53:14.042Z,8.31
2019-02-14T16:55:42.497Z,8.26
2019-02-14T16:58:10.746Z,8.21
2019-02-14T17:00:38.977Z,8.13
2019-02-14T17:03:07.219Z,8.06
2019-02-14T17:05:35.449Z,7.98
2019-02-14T17:08:03.694Z,7.89
2019-02-14T17:10:37.099Z,7.79
2019-02-14T17:13:02.203Z,7.72
2019-02-14T17:15:30.440Z,7.64
2019-02-14T17:17:58.680Z,7.57
2019-02-14T17:20:26.911Z,7.49
2019-02-14T17:22:55.149Z,7.42
2019-02-14T17:25:23.610Z,7.32
2019-02-14T17:27:51.864Z,7.24
2019-02-14T17:30:20.345Z,7.12
2019-02-14T17:32:48.937Z,7.05
2019-02-14T17:35:17.427Z,6.98
2019-02-14T17:37:46.000Z,6.87
2019-02-14T17:40:14.238Z,6.79
2019-02-14T17:42:42.715Z,6.73
2019-02-14T17:45:11.113Z,6.69
2019-02-14T17:47:39.625Z,6.64
2019-02-14T17:50:08.800Z,6.60
2019-02-14T17:52:37.057Z,6.55
2019-02-14T17:55:08.270Z,6.48
2019-02-14T17:57:36.738Z,6.42
2019-02-14T18:00:08.586Z,6.39
2019-02-14T18:02:37.067Z,6.33
2019-02-14T18:05:07.709Z,6.26
2019-02-14T18:07:36.285Z,6.17
2019-02-14T18:10:10.415Z,6.11
2019-02-14T18:12:38.655Z,6.03
2019-02-14T18:15:09.938Z,5.97
2019-02-14T18:17:38.174Z,5.90
2019-02-14T18:20:09.150Z,5.84
2019-02-14T18:22:37.654Z,5.78
2019-02-14T18:25:09.202Z,5.74
2019-02-14T18:27:37.435Z,5.69
2019-02-14T18:30:10.865Z,5.62
2019-02-14T18:32:39.336Z,5.62
2019-02-14T18:35:11.886Z,5.59
2019-02-14T18:37:40.433Z,5.59
2019-02-14T18:40:10.223Z,5.47
2019-02-14T18:42:41.490Z,5.48
2019-02-14T18:45:13.833Z,5.44
2019-02-14T18:47:42.346Z,5.39
2019-02-14T18:50:14.208Z,5.33
2019-02-14T18:52:42.446Z,5.26
2019-02-14T18:55:11.536Z,5.26
2019-02-14T18:57:39.767Z,5.20
2019-02-14T19:00:11.361Z,5.12
2019-02-14T19:02:39.587Z,5.01
2019-02-14T19:05:10.211Z,4.95
2019-02-14T19:07:38.773Z,4.91
2019-02-14T19:10:10.152Z,4.91
2019-02-14T19:15:12.500Z,4.84
2019-02-14T19:17:40.718Z,4.85
2019-02-14T19:20:11.678Z,4.83
2019-02-14T19:22:40.870Z,4.74
2019-02-14T19:25:09.626Z,4.72
2019-02-14T19:27:37.846Z,4.72
2019-02-14T19:30:08.895Z,4.60
2019-02-14T19:32:37.123Z,4.65
2019-02-14T19:35:07.501Z,4.58
2019-02-14T19:37:35.748Z,4.53
2019-02-14T19:40:05.736Z,4.53
2019-02-14T19:42:34.033Z,4.52
2019-02-14T19:45:02.517Z,4.48
2019-02-14T19:47:30.805Z,4.49
2019-02-14T19:49:59.036Z,4.48
2019-02-14T19:52:27.542Z,4.43
2019-02-14T19:54:55.837Z,4.43
2019-02-14T19:57:24.072Z,4.41
2019-02-14T19:59:52.305Z,4.34
2019-02-14T20:02:20.540Z,4.30
2019-02-14T20:04:48.773Z,4.26
2019-02-14T20:07:17.018Z,4.26
2019-02-14T20:09:45.266Z,4.08
2019-02-14T20:12:13.503Z,4.14
2019-02-14T20:14:41.758Z,4.14
2019-02-14T20:17:09.999Z,3.75
2019-02-14T20:19:38.605Z,3.75
2019-02-14T20:22:06.893Z,4.03
2019-02-14T20:24:35.124Z,4.01
2019-02-14T20:27:03.365Z,4.01
2019-02-14T20:29:31.586Z,4.00
2019-02-14T20:32:00.084Z,4.05
2019-02-14T20:34:28.361Z,4.05
2019-02-14T20:36:56.550Z,4.03
2019-02-14T20:39:24.841Z,4.01
2019-02-14T20:41:53.083Z,3.95
2019-02-14T20:44:21.573Z,3.95
2019-02-14T20:46:50.052Z,3.96
2019-02-14T20:49:18.288Z,3.89
2019-02-14T20:51:46.519Z,3.82
2019-02-14T20:54:14.747Z,3.77
2019-02-14T20:56:43.162Z,3.62
2019-02-14T20:59:11.639Z,3.60
2019-02-14T21:01:39.864Z,3.60
2019-02-14T21:04:08.109Z,3.55
2019-02-14T21:06:36.337Z,3.55
2019-02-14T21:09:06.637Z,3.53
2019-02-14T21:11:35.181Z,3.49
2019-02-14T21:14:03.420Z,3.49
2019-02-14T21:16:31.942Z,3.45
2019-02-14T21:19:00.189Z,3.42
2019-02-14T21:21:28.415Z,3.36
2019-02-14T21:23:57.049Z,3.35
2019-02-14T21:26:25.256Z,3.33
2019-02-14T21:28:53.738Z,3.33
2019-02-14T21:31:21.982Z,3.33
2019-02-14T21:33:50.212Z,3.31
2019-02-14T21:36:18.441Z,3.26
2019-02-14T21:38:46.693Z,3.26
2019-02-14T21:41:14.911Z,3.29
2019-02-14T21:43:43.165Z,3.25
2019-02-14T21:46:11.498Z,3.21
2019-02-14T21:48:39.987Z,3.29
2019-02-14T21:51:08.186Z,3.14
2019-02-14T21:53:36.439Z,2.96
2019-02-14T21:56:04.659Z,2.96
2019-02-14T21:58:32.890Z,3.01
2019-02-14T22:01:01.217Z,2.99
2019-02-14T22:03:29.711Z,3.00
2019-02-14T22:05:57.939Z,3.00
2019-02-14T22:08:26.204Z,3.04
2019-02-14T22:10:54.432Z,3.03
2019-02-14T22:13:24.772Z,3.03
2019-02-14T22:15:52.974Z,2.97
2019-02-14T22:18:21.245Z,2.95
2019-02-14T22:20:49.474Z,2.89
2019-02-14T22:23:17.793Z,2.80
2019-02-14T22:25:46.030Z,2.81
2019-02-14T22:28:14.540Z,2.76
2019-02-14T22:30:43.003Z,2.73
2019-02-14T22:33:11.237Z,2.65
2019-02-14T22:35:39.703Z,2.66
2019-02-14T22:38:07.936Z,2.71
2019-02-14T22:40:36.173Z,2.71
2019-02-14T22:43:04.627Z,2.72
2019-02-14T22:45:32.865Z,2.72
2019-02-14T22:48:01.095Z,2.71
2019-02-14T22:50:29.338Z,2.68
2019-02-14T22:52:57.569Z,2.61
2019-02-14T22:55:25.814Z,2.64
2019-02-14T22:57:54.043Z,2.66
2019-02-14T23:00:33.094Z,2.59
2019-02-14T23:03:01.324Z,2.56
2019-02-14T23:05:29.580Z,2.57
2019-02-14T23:07:57.837Z,2.54
2019-02-14T23:10:26.079Z,2.54
2019-02-14T23:12:55.975Z,2.51
2019-02-14T23:15:24.281Z,2.51
2019-02-14T23:17:52.741Z,2.50
2019-02-14T23:20:21.274Z,2.47
2019-02-14T23:22:49.503Z,2.42
2019-02-14T23:25:18.151Z,2.40
2019-02-14T23:27:46.387Z,2.42
2019-02-14T23:30:15.013Z,2.38
2019-02-14T23:32:43.255Z,2.34
2019-02-14T23:35:11.482Z,2.33
2019-02-14T23:37:39.722Z,2.28
2019-02-14T23:40:07.950Z,2.25
2019-02-14T23:42:36.182Z,2.25
2019-02-14T23:45:06.814Z,2.26
2019-02-14T23:47:35.285Z,2.24
2019-02-14T23:50:04.549Z,2.26
2019-02-14T23:52:32.782Z,2.22
2019-02-14T23:55:01.011Z,2.22
2019-02-14T23:57:29.469Z,2.20
2019-02-14T23:59:57.923Z,2.17
